ENSH/SVJ METAR and TAF weather

Enter ICAO airport designator
Station Type Date Time Source
ENSH METAR 2020/03/29 12:20 UTC NOAA

ENSH 291220Z 35008KT 0500 +SHSN VV002 M04/M06 Q1020 RMK WIND 150FT 36011KT


Station Type Date Time Source
ENSH Decoded METAR 2020/03/29 12:20 UTC NOAA

Svolvaer / Helle, Norway (ENSH) 68-15N 014-40E 9M
Mar 29, 2020 - 08:20 AM EDT / 2020.03.29 1220 UTC
Wind: from the N (350 degrees) at 9 MPH (8 KT):0
Visibility: less than 1 mile:0
Sky conditions: obscured
Weather: heavy snow showers
Temperature: 24 F (-4 C)
Windchill: 14 F (-10 C):1
Dew Point: 21 F (-6 C)
Relative Humidity: 85%
Pressure (altimeter): 30.12 in. Hg (1020 hPa)
ob: ENSH 291220Z 35008KT 0500 +SHSN VV002 M04/M06 Q1020 RMK WIND 150FT 36011KT
cycle: 12

Station Type Date Time Source
ENSH TAF UTC NOAA

Error!

Example: see airport list